createdAt,value
2023-02-12T00:14:16.917Z,3.28
2023-02-12T00:44:20.556Z,3.44
2023-02-12T01:14:24.068Z,3.59
2023-02-12T01:44:27.358Z,3.62
2023-02-12T02:14:30.700Z,3.63
2023-02-12T02:44:33.958Z,3.73
2023-02-12T03:14:36.890Z,3.58
2023-02-12T03:44:40.331Z,3.66
2023-02-12T04:14:43.371Z,3.37
2023-02-12T04:44:46.963Z,3.33
2023-02-12T05:14:49.979Z,3.38
2023-02-12T05:44:53.491Z,3.13
2023-02-12T06:14:56.474Z,3.10
2023-02-12T06:44:59.821Z,3.25
2023-02-12T07:15:03.337Z,3.25
2023-02-12T07:45:06.543Z,3.24
2023-02-12T08:15:09.467Z,3.42
2023-02-12T08:45:12.746Z,3.02
2023-02-12T09:15:15.744Z,3.07
2023-02-12T09:45:19.075Z,3.27
2023-02-12T10:15:22.565Z,3.56
2023-02-12T10:45:26.031Z,4.01
2023-02-12T11:15:29.456Z,4.03
2023-02-12T11:45:33.456Z,4.14
2023-02-12T12:15:36.401Z,4.45
2023-02-12T12:45:40.131Z,4.62
2023-02-12T13:15:43.207Z,4.72
2023-02-12T13:45:46.481Z,4.75
2023-02-12T14:15:50.715Z,4.75
2023-02-12T14:45:53.710Z,4.59
2023-02-12T15:15:57.789Z,4.55
2023-02-12T15:46:00.689Z,4.36
2023-02-12T16:16:04.821Z,4.30
2023-02-12T16:46:07.765Z,4.19
2023-02-12T17:16:14.504Z,3.99
2023-02-12T17:46:21.986Z,3.96
2023-02-12T18:16:26.805Z,3.87
2023-02-12T18:46:30.732Z,3.83
2023-02-12T19:16:36.023Z,3.90
2023-02-12T19:46:39.398Z,3.88
2023-02-12T20:16:42.576Z,3.87
2023-02-12T20:46:46.319Z,3.83
2023-02-12T21:16:50.334Z,3.80
2023-02-12T21:46:53.782Z,3.84
2023-02-12T22:16:56.778Z,3.84
2023-02-12T22:47:00.190Z,3.73
2023-02-12T23:17:03.121Z,3.84
2023-02-12T23:47:06.548Z,3.89
